createdAt,value
2023-02-15T00:00:27.357Z,11.55
2023-02-15T00:02:55.321Z,11.60
2023-02-15T00:05:23.268Z,11.58
2023-02-15T00:07:51.433Z,11.56
2023-02-15T00:10:20.527Z,11.53
2023-02-15T00:12:48.598Z,11.57
2023-02-15T00:15:20.386Z,11.52
2023-02-15T00:17:50.125Z,11.59
2023-02-15T00:20:19.433Z,11.54
2023-02-15T00:22:47.525Z,11.56
2023-02-15T00:25:16.330Z,11.60
2023-02-15T00:27:44.360Z,11.60
2023-02-15T00:30:13.244Z,11.61
2023-02-15T00:32:41.249Z,11.63
2023-02-15T00:35:10.806Z,11.60
2023-02-15T00:37:39.099Z,11.62
2023-02-15T00:40:09.351Z,11.61
2023-02-15T00:42:37.434Z,11.59
2023-02-15T00:45:05.867Z,11.58
2023-02-15T00:47:34.447Z,11.59
2023-02-15T00:50:04.164Z,11.63
2023-02-15T00:52:33.497Z,11.62
2023-02-15T00:55:01.848Z,11.67
2023-02-15T00:57:30.152Z,11.64
2023-02-15T00:59:59.648Z,11.63
2023-02-15T01:02:27.739Z,11.62
2023-02-15T01:04:55.954Z,11.60
2023-02-15T01:07:24.351Z,11.61
2023-02-15T01:09:53.700Z,11.61
2023-02-15T01:12:21.688Z,11.59
2023-02-15T01:14:50.753Z,11.60
2023-02-15T01:17:21.162Z,11.64
2023-02-15T01:19:53.231Z,11.60
2023-02-15T01:22:21.411Z,11.60
2023-02-15T01:24:51.033Z,11.61
2023-02-15T01:27:20.570Z,11.61
2023-02-15T01:29:49.696Z,11.60
2023-02-15T01:32:17.639Z,11.63
2023-02-15T01:34:45.779Z,11.63
2023-02-15T01:37:14.653Z,11.65
2023-02-15T01:39:44.278Z,11.65
2023-02-15T01:42:12.932Z,11.69
2023-02-15T01:44:50.705Z,11.69
2023-02-15T01:47:23.181Z,11.70
2023-02-15T01:49:54.041Z,11.71
2023-02-15T01:52:22.078Z,11.71
2023-02-15T01:54:51.589Z,11.74
2023-02-15T01:57:23.876Z,11.69
2023-02-15T01:59:58.841Z,11.74
2023-02-15T02:02:27.139Z,11.74
2023-02-15T02:04:56.574Z,11.74
2023-02-15T02:07:28.891Z,11.72
2023-02-15T02:09:56.967Z,11.73
2023-02-15T02:12:26.540Z,11.71
2023-02-15T02:14:55.974Z,11.71
2023-02-15T02:17:27.326Z,11.69
2023-02-15T02:20:14.234Z,11.68
2023-02-15T02:22:51.483Z,11.62
2023-02-15T02:26:07.374Z,11.63
2023-02-15T02:29:14.216Z,11.61
2023-02-15T02:31:54.762Z,11.56
2023-02-15T02:34:25.526Z,11.61
2023-02-15T02:36:58.059Z,11.59
2023-02-15T02:39:30.392Z,11.61
2023-02-15T02:42:01.134Z,11.62
2023-02-15T02:44:31.875Z,11.64
2023-02-15T02:47:03.515Z,11.64
2023-02-15T02:49:36.542Z,11.63
2023-02-15T02:52:06.759Z,11.61
2023-02-15T02:54:35.097Z,11.61
2023-02-15T02:57:04.250Z,11.60
2023-02-15T02:59:36.361Z,11.63
2023-02-15T03:02:08.197Z,11.63
2023-02-15T03:04:40.656Z,11.60
2023-02-15T03:07:10.181Z,11.61
2023-02-15T03:09:43.664Z,11.59
2023-02-15T03:12:16.329Z,11.59
2023-02-15T03:14:48.785Z,11.58
2023-02-15T03:17:18.006Z,11.47
2023-02-15T03:19:47.755Z,11.54
2023-02-15T03:22:16.552Z,11.54
2023-02-15T03:24:47.617Z,11.51
2023-02-15T03:27:20.533Z,11.49
2023-02-15T03:29:48.874Z,11.49
2023-02-15T03:32:17.085Z,11.50
2023-02-15T03:34:45.297Z,11.51
2023-02-15T03:37:17.145Z,11.50
2023-02-15T03:39:49.903Z,11.51
2023-02-15T03:42:19.237Z,11.52
2023-02-15T03:44:51.987Z,11.52
2023-02-15T03:47:21.888Z,11.48
2023-02-15T03:49:52.940Z,11.51
2023-02-15T03:52:21.900Z,11.51
2023-02-15T03:54:49.956Z,11.52
2023-02-15T03:57:38.960Z,11.47
2023-02-15T04:00:28.898Z,11.48
2023-02-15T04:03:13.742Z,11.51
2023-02-15T04:05:43.012Z,11.47
2023-02-15T04:08:12.465Z,11.56
2023-02-15T04:10:56.039Z,11.62
2023-02-15T04:13:26.264Z,11.71
2023-02-15T04:16:07.548Z,11.73
2023-02-15T04:18:56.715Z,11.84
2023-02-15T04:21:42.726Z,11.82
2023-02-15T04:24:29.639Z,11.98
2023-02-15T04:26:57.787Z,12.06
2023-02-15T04:29:26.936Z,12.06
2023-02-15T04:31:55.601Z,12.10
2023-02-15T04:34:23.722Z,12.16
2023-02-15T04:36:52.067Z,12.21
2023-02-15T04:39:21.844Z,12.18
2023-02-15T04:41:49.897Z,12.16
2023-02-15T04:44:18.073Z,12.15
2023-02-15T04:46:46.054Z,12.15
2023-02-15T04:49:14.016Z,12.03
2023-02-15T04:51:42.054Z,12.11
2023-02-15T04:54:10.003Z,12.08
2023-02-15T04:56:40.006Z,12.10
2023-02-15T04:59:08.065Z,12.02
2023-02-15T05:01:36.075Z,12.02
2023-02-15T05:04:04.177Z,12.02
2023-02-15T05:06:39.467Z,12.00
2023-02-15T05:09:07.500Z,11.98
2023-02-15T05:11:35.489Z,11.98
2023-02-15T05:14:05.358Z,11.98
2023-02-15T05:16:33.538Z,11.96
2023-02-15T05:19:01.547Z,11.96
2023-02-15T05:21:29.508Z,11.94
2023-02-15T05:23:57.475Z,11.90
2023-02-15T05:26:43.799Z,11.90
2023-02-15T05:29:13.257Z,11.85
2023-02-15T05:31:41.424Z,11.86
2023-02-15T05:34:09.697Z,11.82
2023-02-15T05:36:37.702Z,11.78
2023-02-15T05:39:06.983Z,11.73
2023-02-15T05:41:35.066Z,11.71
2023-02-15T05:44:03.508Z,11.74
2023-02-15T05:46:43.601Z,11.70
2023-02-15T05:49:11.679Z,11.68
2023-02-15T05:51:39.598Z,11.66
2023-02-15T05:54:07.711Z,11.63
2023-02-15T05:56:35.910Z,11.62
2023-02-15T05:59:06.301Z,11.60
2023-02-15T06:01:35.821Z,11.58
2023-02-15T06:04:03.985Z,11.53
2023-02-15T06:06:31.979Z,11.56
2023-02-15T06:09:00.022Z,11.52
2023-02-15T06:11:27.973Z,11.52
2023-02-15T06:13:55.967Z,11.51
2023-02-15T06:16:24.058Z,11.51
2023-02-15T06:18:53.852Z,11.51
2023-02-15T06:21:21.866Z,11.49
2023-02-15T06:23:49.863Z,11.51
2023-02-15T06:26:17.796Z,11.47
2023-02-15T06:28:45.816Z,11.48
2023-02-15T06:31:13.868Z,11.49
2023-02-15T06:33:41.921Z,11.48
2023-02-15T06:36:11.393Z,11.46
2023-02-15T06:38:39.418Z,11.44
2023-02-15T06:41:07.492Z,11.44
2023-02-15T06:43:40.635Z,11.44
2023-02-15T06:46:09.038Z,11.42
2023-02-15T06:48:36.995Z,11.40
2023-02-15T06:51:04.999Z,11.39
2023-02-15T06:53:36.934Z,11.39
2023-02-15T06:56:07.770Z,11.40
2023-02-15T06:58:37.835Z,11.38
2023-02-15T07:01:06.258Z,11.39
2023-02-15T07:03:34.317Z,11.40
2023-02-15T07:06:04.288Z,11.40
2023-02-15T07:08:32.554Z,11.39
2023-02-15T07:11:15.841Z,11.40
2023-02-15T07:13:44.188Z,11.37
2023-02-15T07:16:13.653Z,11.40
2023-02-15T07:18:41.822Z,11.39
2023-02-15T07:21:09.888Z,11.41
2023-02-15T07:23:37.913Z,11.41
2023-02-15T07:26:07.387Z,11.43
2023-02-15T07:28:35.691Z,11.40
2023-02-15T07:31:04.089Z,11.48
2023-02-15T07:33:33.983Z,11.47
2023-02-15T07:36:03.219Z,11.49
2023-02-15T07:38:32.723Z,11.49
2023-02-15T07:41:03.375Z,11.50
2023-02-15T07:43:48.268Z,11.50
2023-02-15T07:46:17.504Z,11.53
2023-02-15T07:49:01.475Z,11.55
2023-02-15T07:51:32.096Z,11.59
2023-02-15T07:54:00.194Z,11.63
2023-02-15T07:56:28.198Z,11.68
2023-02-15T07:58:59.168Z,11.70
2023-02-15T08:01:28.122Z,11.76
2023-02-15T08:03:56.413Z,11.81
2023-02-15T08:06:25.383Z,11.82
2023-02-15T08:08:54.029Z,11.91
2023-02-15T08:11:33.615Z,11.93
2023-02-15T08:14:04.844Z,11.98
2023-02-15T08:16:34.651Z,12.03
2023-02-15T08:19:03.925Z,12.09
2023-02-15T08:21:32.033Z,12.10
2023-02-15T08:24:00.237Z,12.12
2023-02-15T08:26:29.165Z,12.09
2023-02-15T08:28:57.219Z,12.11
2023-02-15T08:31:26.775Z,12.20
2023-02-15T08:34:04.862Z,12.19
2023-02-15T08:36:32.837Z,12.19
2023-02-15T08:39:01.664Z,12.17
2023-02-15T08:41:34.653Z,12.14
2023-02-15T08:44:05.761Z,12.14
2023-02-15T08:46:35.940Z,12.15
2023-02-15T08:49:04.390Z,12.18
2023-02-15T08:51:34.456Z,12.21
2023-02-15T08:54:04.529Z,12.21
2023-02-15T08:56:35.394Z,12.23
2023-02-15T08:59:03.533Z,12.35
2023-02-15T09:01:32.469Z,12.41
2023-02-15T09:04:02.814Z,12.43
2023-02-15T09:06:31.471Z,12.56
2023-02-15T09:08:59.393Z,12.60
2023-02-15T09:11:28.412Z,12.67
2023-02-15T09:13:57.274Z,12.73
2023-02-15T09:16:25.997Z,12.78
2023-02-15T09:18:54.207Z,12.84
2023-02-15T09:21:25.040Z,13.01
2023-02-15T09:23:53.927Z,13.19
2023-02-15T09:26:22.400Z,13.24
2023-02-15T09:28:52.991Z,13.43
2023-02-15T09:31:22.852Z,13.37
2023-02-15T09:33:51.929Z,13.63
2023-02-15T09:36:21.016Z,13.67
2023-02-15T09:38:57.393Z,13.79
2023-02-15T09:42:02.509Z,13.84
2023-02-15T09:44:36.483Z,13.78
2023-02-15T09:47:15.349Z,13.89
2023-02-15T09:49:47.257Z,13.93
2023-02-15T09:52:31.523Z,13.99
2023-02-15T09:55:19.932Z,14.00
2023-02-15T09:57:52.031Z,14.05
2023-02-15T10:00:24.938Z,14.07
2023-02-15T10:03:01.387Z,14.07
2023-02-15T10:05:34.576Z,14.07
2023-02-15T10:08:22.227Z,14.10
2023-02-15T10:10:55.788Z,14.11
2023-02-15T10:13:32.481Z,14.16
2023-02-15T10:16:09.024Z,14.24
2023-02-15T10:18:44.632Z,14.34
2023-02-15T10:21:19.799Z,14.47
2023-02-15T10:24:00.875Z,14.41
2023-02-15T10:26:33.517Z,14.51
2023-02-15T10:29:03.669Z,14.42
2023-02-15T10:31:40.304Z,14.54
2023-02-15T10:34:17.216Z,14.56
2023-02-15T10:37:08.871Z,14.58
2023-02-15T10:39:42.036Z,14.54
2023-02-15T10:42:13.804Z,14.59
2023-02-15T10:44:52.876Z,14.58
2023-02-15T10:47:51.752Z,14.63
2023-02-15T10:50:31.896Z,14.64
2023-02-15T10:53:14.186Z,14.60
2023-02-15T10:55:48.962Z,14.56
2023-02-15T10:58:23.160Z,14.53
2023-02-15T11:01:00.903Z,14.56
2023-02-15T11:03:41.282Z,14.55
2023-02-15T11:06:11.368Z,14.61
2023-02-15T11:08:41.020Z,14.62
2023-02-15T11:11:17.674Z,14.47
2023-02-15T11:13:55.826Z,14.54
2023-02-15T11:16:25.410Z,14.89
2023-02-15T11:18:55.410Z,14.99
2023-02-15T11:21:39.743Z,15.11
2023-02-15T11:24:11.971Z,15.17
2023-02-15T11:26:41.884Z,15.19
2023-02-15T11:29:13.650Z,15.16
2023-02-15T11:31:45.565Z,15.14
2023-02-15T11:34:21.049Z,15.03
2023-02-15T11:36:52.121Z,14.79
2023-02-15T11:39:23.848Z,14.60
2023-02-15T11:41:55.520Z,14.41
2023-02-15T11:44:27.321Z,14.26
2023-02-15T11:47:02.402Z,14.19
2023-02-15T11:49:32.957Z,14.11
2023-02-15T11:52:10.118Z,14.09
2023-02-15T11:54:48.303Z,13.96
2023-02-15T11:57:21.295Z,13.85
2023-02-15T11:59:55.820Z,13.89
2023-02-15T12:02:28.745Z,13.89
2023-02-15T12:05:00.201Z,13.84
2023-02-15T12:07:32.948Z,13.78
2023-02-15T12:10:08.900Z,13.71
2023-02-15T12:12:37.812Z,13.66
2023-02-15T12:15:10.674Z,13.65
2023-02-15T12:17:43.475Z,13.72
2023-02-15T12:20:31.193Z,13.74
2023-02-15T12:23:03.424Z,13.75
2023-02-15T12:25:35.418Z,13.76
2023-02-15T12:28:03.549Z,13.74
2023-02-15T12:30:35.289Z,13.76
2023-02-15T12:33:07.762Z,13.81
2023-02-15T12:35:40.283Z,13.83
2023-02-15T12:38:31.670Z,13.83
2023-02-15T12:41:01.483Z,13.82
2023-02-15T12:43:34.217Z,13.86
2023-02-15T12:46:30.526Z,13.89
2023-02-15T12:49:11.206Z,13.89
2023-02-15T12:51:49.295Z,13.94
2023-02-15T12:54:51.451Z,13.98
2023-02-15T12:57:25.744Z,14.02
2023-02-15T12:59:55.281Z,13.99
2023-02-15T13:02:27.360Z,13.94
2023-02-15T13:04:55.924Z,13.94
2023-02-15T13:07:23.893Z,13.99
2023-02-15T13:09:51.968Z,13.99
2023-02-15T13:12:36.040Z,14.01
2023-02-15T13:15:05.960Z,14.00
2023-02-15T13:17:35.715Z,14.02
2023-02-15T13:20:05.489Z,13.99
2023-02-15T13:22:36.977Z,14.05
2023-02-15T13:25:06.851Z,14.03
2023-02-15T13:27:37.585Z,14.07
2023-02-15T13:30:11.606Z,14.12
2023-02-15T13:32:42.114Z,14.10
2023-02-15T13:35:15.949Z,14.11
2023-02-15T13:38:30.603Z,14.11
2023-02-15T13:41:04.557Z,14.11
2023-02-15T13:43:43.465Z,14.07
2023-02-15T13:46:18.569Z,14.05
2023-02-15T13:48:52.155Z,14.06
2023-02-15T13:51:23.854Z,14.10
2023-02-15T13:54:08.522Z,14.19
2023-02-15T13:56:43.191Z,14.31
2023-02-15T13:59:54.564Z,14.45
2023-02-15T14:02:45.300Z,14.54
2023-02-15T14:05:27.070Z,14.62
2023-02-15T14:07:58.798Z,14.79
2023-02-15T14:10:38.012Z,14.87
2023-02-15T14:13:32.537Z,14.98
2023-02-15T14:16:02.733Z,14.95
2023-02-15T14:18:35.072Z,14.99
2023-02-15T14:21:09.073Z,15.07
2023-02-15T14:23:50.354Z,15.10
2023-02-15T14:26:21.902Z,15.00
2023-02-15T14:28:53.391Z,14.94
2023-02-15T14:31:26.061Z,14.95
2023-02-15T14:33:56.835Z,14.85
2023-02-15T14:36:26.980Z,14.86
2023-02-15T14:39:47.929Z,14.98
2023-02-15T14:42:36.207Z,15.12
2023-02-15T14:45:07.898Z,15.35
2023-02-15T14:48:33.408Z,15.50
2023-02-15T14:51:05.298Z,15.54
2023-02-15T14:53:43.022Z,15.56
2023-02-15T14:56:33.360Z,15.56
2023-02-15T14:59:49.209Z,15.56
2023-02-15T15:02:21.498Z,15.36
2023-02-15T15:05:32.060Z,15.54
2023-02-15T15:08:07.810Z,15.44
2023-02-15T15:14:45.532Z,15.41
2023-02-15T15:17:38.390Z,15.24
2023-02-15T15:20:55.652Z,15.18
2023-02-15T15:23:45.287Z,15.16
2023-02-15T15:26:30.948Z,15.13
2023-02-15T15:29:05.898Z,15.06
2023-02-15T15:31:56.067Z,15.09
2023-02-15T15:35:05.722Z,14.95
2023-02-15T15:38:07.981Z,15.04
2023-02-15T15:50:14.601Z,14.96
2023-02-15T15:54:04.198Z,14.99
2023-02-15T16:05:33.370Z,14.80
2023-02-15T16:11:45.780Z,15.90
2023-02-15T16:18:15.029Z,16.42
2023-02-15T16:29:29.875Z,15.84
2023-02-15T16:32:54.775Z,15.37
2023-02-15T16:37:04.765Z,15.09
2023-02-15T16:46:17.182Z,14.67
2023-02-15T16:49:05.732Z,14.49
2023-02-15T16:51:35.674Z,14.44
2023-02-15T16:54:06.201Z,14.45
2023-02-15T16:56:34.376Z,14.44
2023-02-15T16:59:02.650Z,14.43
2023-02-15T17:01:31.920Z,14.40
2023-02-15T17:04:15.624Z,14.38
2023-02-15T17:06:43.595Z,14.35
2023-02-15T17:09:19.117Z,14.27
2023-02-15T17:11:47.181Z,14.21
2023-02-15T17:14:21.835Z,14.14
2023-02-15T17:16:53.870Z,14.06
2023-02-15T17:19:25.499Z,14.03
2023-02-15T17:21:54.898Z,13.98
2023-02-15T17:24:27.624Z,13.91
2023-02-15T17:27:00.872Z,13.80
2023-02-15T17:29:36.213Z,13.74
2023-02-15T17:32:04.867Z,13.63
2023-02-15T17:34:59.986Z,13.58
2023-02-15T17:37:30.141Z,13.47
2023-02-15T17:40:01.906Z,13.42
2023-02-15T17:42:30.046Z,13.36
2023-02-15T17:44:58.522Z,13.30
2023-02-15T17:50:22.431Z,13.18
2023-02-15T18:10:36.578Z,12.64
2023-02-15T19:57:40.503Z,12.18
2023-02-15T21:07:37.166Z,12.60
2023-02-15T21:39:43.524Z,12.73
2023-02-15T21:46:33.355Z,13.01
2023-02-15T21:49:02.306Z,13.04
2023-02-15T21:51:48.645Z,13.08
2023-02-15T21:54:18.717Z,13.07
2023-02-15T21:56:51.063Z,13.06
2023-02-15T21:59:19.176Z,13.00
2023-02-15T22:01:55.905Z,13.07
2023-02-15T22:04:24.982Z,12.91
2023-02-15T22:06:57.933Z,13.00
2023-02-15T22:09:29.915Z,13.01
2023-02-15T22:11:57.880Z,13.03
2023-02-15T22:14:36.462Z,13.08
2023-02-15T22:17:14.874Z,13.06
2023-02-15T22:19:45.361Z,13.06
2023-02-15T22:22:13.422Z,13.11
2023-02-15T22:24:51.460Z,13.15
2023-02-15T22:27:21.296Z,13.18
2023-02-15T22:29:49.766Z,13.22
2023-02-15T22:32:19.768Z,13.24
2023-02-15T22:46:47.986Z,13.08
